Time;durP1;ratioP1;P1;durP2;ratioP2;P2;SDS_P1;SDS_P2;PMS_P1;PMS_P2;Temp;Humidity;BMP_temperature;BMP_pressure;BME280_temperature;BME280_humidity;BME280_pressure;Samples;Min_cycle;Max_cycle;Signal;HPM_P1;HPM_P2
2022/11/02 00:01:20;;;;;;;1999.90;999.90;;;13.50;23.40;;;;;;5119000;27;20475;-79
2022/11/02 00:03:47;;;;;;;1999.90;999.90;;;13.40;99.90;;;;;;5136842;27;20232;-80
2022/11/02 00:06:12;;;;;;;1999.90;999.90;;;13.40;89.90;;;;;;5135775;27;20047;-83
2022/11/02 00:08:38;;;;;;;1999.90;999.90;;;13.40;99.90;;;;;;5119537;27;20043;-80
2022/11/02 00:11:04;;;;;;;1999.90;999.90;;;14.00;24.20;;;;;;5136672;27;20434;-80
2022/11/02 00:13:29;;;;;;;1999.90;999.90;;;13.40;99.90;;;;;;5136874;27;20051;-82
2022/11/02 00:15:55;;;;;;;1999.90;999.90;;;13.40;99.90;;;;;;5154405;27;20479;-82
2022/11/02 00:18:21;;;;;;;1999.90;999.90;;;13.30;99.90;;;;;;5154965;27;20055;-80
2022/11/02 00:20:47;;;;;;;1845.70;764.15;;;13.40;99.90;;;;;;5118623;27;20039;-80
2022/11/02 00:23:14;;;;;;;1856.05;791.47;;;13.30;99.90;;;;;;5154583;27;20121;-81
2022/11/02 00:25:47;;;;;;;1999.90;507.40;;;13.90;99.90;;;;;;5119053;27;20055;-80
2022/11/02 00:28:13;;;;;;;1999.90;197.93;;;13.30;91.30;;;;;;5136537;27;20049;-81
2022/11/02 00:30:40;;;;;;;1999.90;773.28;;;13.40;99.90;;;;;;5154551;27;20039;-82
2022/11/02 00:33:06;;;;;;;1904.15;570.70;;;13.40;99.90;;;;;;5117429;27;20066;-84
2022/11/02 00:35:33;;;;;;;1451.53;519.15;;;13.30;1.00;;;;;;5135439;27;20062;-83
2022/11/02 00:37:59;;;;;;;1999.90;599.08;;;13.40;1.00;;;;;;5136223;27;20039;-85
2022/11/02 00:40:25;;;;;;;1999.90;999.90;;;13.50;55.80;;;;;;5136311;27;20050;-84
2022/11/02 00:42:50;;;;;;;1999.90;999.90;;;13.00;1.00;;;;;;5135531;27;20047;-86
2022/11/02 00:45:16;;;;;;;1929.10;572.33;;;13.20;99.90;;;;;;5154106;27;20039;-84
2022/11/02 00:47:42;;;;;;;1697.38;128.18;;;13.00;99.90;;;;;;5136055;27;20054;-86
2022/11/02 00:50:08;;;;;;;1999.90;999.90;;;12.90;99.90;;;;;;5134705;27;20482;-85
2022/11/02 00:52:33;;;;;;;1991.72;798.22;;;12.80;99.90;;;;;;5135972;27;20030;-86
2022/11/02 00:54:59;;;;;;;1999.90;999.90;;;12.90;99.90;;;;;;5154238;27;20047;-89
2022/11/02 00:57:25;;;;;;;1999.90;386.25;;;12.80;99.90;;;;;;5136116;27;20038;-91
2022/11/02 00:59:50;;;;;;;1999.90;999.90;;;13.60;99.90;;;;;;5135710;27;20047;-86
2022/11/02 01:02:16;;;;;;;1940.75;152.18;;;13.60;1.00;;;;;;5118225;27;20098;-85
2022/11/02 01:04:42;;;;;;;1724.35;154.93;;;13.20;99.90;;;;;;5118286;27;20047;-90
2022/11/02 01:07:07;;;;;;;1987.78;260.95;;;13.50;99.90;;;;;;5153481;27;20378;-90
2022/11/02 01:09:33;;;;;;;1999.90;290.90;;;13.60;99.90;;;;;;5154125;27;20035;-90
2022/11/02 01:11:59;;;;;;;1999.90;631.85;;;13.20;1.00;;;;;;5134724;27;20066;-88
2022/11/02 01:14:25;;;;;;;1997.38;256.17;;;14.00;1.00;;;;;;5154373;27;20107;-86
2022/11/02 01:16:51;;;;;;;1999.90;639.47;;;13.80;63.90;;;;;;5153101;27;20090;-89
2022/11/02 01:19:17;;;;;;;1999.90;314.63;;;13.50;99.90;;;;;;5135138;27;20047;-87
2022/11/02 01:21:42;;;;;;;1999.90;427.10;;;13.10;99.90;;;;;;5134409;27;20548;-85
2022/11/02 01:24:08;;;;;;;1999.90;445.67;;;14.40;99.90;;;;;;5134200;27;20547;-87
2022/11/02 01:26:34;;;;;;;1999.90;497.13;;;13.90;99.90;;;;;;5135199;27;20047;-87
2022/11/02 01:28:59;;;;;;;1999.90;522.72;;;13.90;99.90;;;;;;5118767;27;20109;-88
2022/11/02 01:31:25;;;;;;;1999.90;577.08;;;13.40;99.90;;;;;;5100819;27;20065;-85
2022/11/02 01:33:51;;;;;;;1999.90;254.02;;;13.30;99.90;;;;;;5101326;27;20042;-85
2022/11/02 01:36:20;;;;;;;1999.90;467.88;;;13.00;99.90;;;;;;5134718;27;20053;-85
2022/11/02 01:38:48;;;;;;;1999.90;266.10;;;13.10;99.90;;;;;;5153806;27;20054;-85
2022/11/02 01:41:13;;;;;;;1999.90;322.35;;;13.80;99.90;;;;;;5135035;27;20056;-85
2022/11/02 01:43:48;;;;;;;1999.90;279.60;;;13.80;99.90;;;;;;5135058;27;20042;-85
2022/11/02 01:46:16;;;;;;;1999.90;348.77;;;13.70;99.90;;;;;;5117874;27;20046;-84
2022/11/02 01:48:50;;;;;;;;;;;15.20;99.90;;;;;;5135576;27;20043;-83
2022/11/02 01:51:37;;;;;;;1999.90;233.07;;;13.40;99.90;;;;;;5134538;27;19933;-83
2022/11/02 01:54:20;;;;;;;1999.90;370.02;;;12.90;99.90;;;;;;5154172;27;20085;-83
2022/11/02 01:56:50;;;;;;;1983.45;353.90;;;13.70;99.90;;;;;;5139635;27;20042;-83
2022/11/02 01:59:22;;;;;;;1999.90;566.47;;;13.00;99.90;;;;;;5139086;27;20061;-83
2022/11/02 02:01:48;;;;;;;1999.90;448.95;;;13.20;99.90;;;;;;5139121;27;20039;-83
2022/11/02 02:04:14;;;;;;;1999.90;452.65;;;13.90;99.90;;;;;;5104683;27;20057;-83
2022/11/02 02:06:40;;;;;;;1999.90;347.98;;;13.30;99.90;;;;;;5156323;27;20495;-83
2022/11/02 02:09:08;;;;;;;1999.90;488.50;;;13.30;99.90;;;;;;5157605;27;20065;-83
2022/11/02 02:11:36;;;;;;;1999.90;435.42;;;13.40;99.90;;;;;;5156937;27;20125;-84
2022/11/02 02:14:08;;;;;;;1999.90;342.73;;;13.80;99.90;;;;;;5157569;27;20035;-84
2022/11/02 02:16:55;;;;;;;1938.70;231.48;;;14.10;99.90;;;;;;5157193;27;20059;-83
2022/11/02 02:19:43;;;;;;;1999.90;789.70;;;13.80;99.90;;;;;;5138342;27;20546;-83
2022/11/02 02:22:46;;;;;;;1999.90;198.63;;;14.50;99.90;;;;;;5156383;27;20090;-84
2022/11/02 02:25:39;;;;;;;1999.90;999.90;;;13.70;99.90;;;;;;5157023;27;20078;-83
2022/11/02 02:28:26;;;;;;;1999.90;793.47;;;14.60;99.90;;;;;;5156604;27;20050;-83
2022/11/02 02:31:00;;;;;;;1996.55;119.43;;;13.70;99.90;;;;;;5156945;27;20053;-83
2022/11/02 02:33:32;;;;;;;1978.22;272.08;;;14.60;99.90;;;;;;5156873;27;20299;-83
2022/11/02 02:35:59;;;;;;;1999.90;312.40;;;13.70;99.90;;;;;;5138182;27;20046;-84
2022/11/02 02:38:44;;;;;;;1999.90;461.45;;;14.60;99.90;;;;;;5137831;27;20091;-82
2022/11/02 02:41:28;;;;;;;1999.90;999.90;;;14.50;99.90;;;;;;5122688;27;20470;-84
2022/11/02 02:43:56;;;;;;;1499.18;67.57;;;13.60;99.90;;;;;;5157329;27;20043;-84
2022/11/02 02:46:50;;;;;;;1999.90;370.80;;;14.40;99.90;;;;;;5138784;27;20047;-84
2022/11/02 02:49:23;;;;;;;1941.63;768.63;;;13.60;99.90;;;;;;5137729;27;20058;-85
2022/11/02 02:51:53;;;;;;;1919.80;774.72;;;14.60;99.90;;;;;;5138504;27;20452;-84
2022/11/02 02:54:31;;;;;;;1999.90;999.90;;;14.50;99.90;;;;;;5156243;27;20130;-84
2022/11/02 02:57:01;;;;;;;1999.90;999.90;;;13.50;99.90;;;;;;5156359;27;20420;-86
2022/11/02 02:59:31;;;;;;;1999.90;999.90;;;13.40;99.90;;;;;;5137916;27;20147;-85
2022/11/02 03:01:57;;;;;;;1999.90;999.90;;;13.50;99.90;;;;;;5156567;27;20479;-85
2022/11/02 03:04:24;;;;;;;818.45;46.88;;;13.60;99.90;;;;;;5120662;27;20138;-85
2022/11/02 03:06:56;;;;;;;1999.90;999.90;;;14.00;99.90;;;;;;5155586;27;20078;-85
2022/11/02 03:09:44;;;;;;;1999.90;999.90;;;14.30;99.90;;;;;;5137291;27;20045;-85
2022/11/02 03:12:27;;;;;;;1999.90;999.90;;;13.80;99.90;;;;;;5156253;27;20513;-85
2022/11/02 03:14:59;;;;;;;1999.90;999.90;;;14.10;99.90;;;;;;5120371;27;20533;-87
2022/11/02 03:17:40;;;;;;;1999.90;999.90;;;13.50;99.90;;;;;;5136774;27;20054;-87
2022/11/02 03:20:12;;;;;;;1999.90;999.90;;;14.30;99.90;;;;;;5136958;27;20539;-86
2022/11/02 03:23:15;;;;;;;1999.90;999.90;;;13.40;99.90;;;;;;5156027;27;20121;-88
2022/11/02 03:26:08;;;;;;;1536.43;529.90;;;13.00;99.90;;;;;;5111355;27;20098;-87
2022/11/02 03:28:55;;;;;;;1990.00;782.28;;;13.90;99.90;;;;;;5116162;27;20055;-89
2022/11/02 03:31:44;;;;;;;1999.90;781.80;;;14.00;99.90;;;;;;5159982;27;20505;-89
2022/11/02 03:34:28;;;;;;;1792.47;316.52;;;13.00;99.90;;;;;;5146688;27;20141;-87
2022/11/02 03:37:00;;;;;;;1999.90;820.80;;;14.00;99.90;;;;;;5159888;27;20050;-89
2022/11/02 03:39:43;;;;;;;1999.90;829.00;;;14.00;99.90;;;;;;5142194;27;20082;-88
2022/11/02 03:42:12;;;;;;;1999.90;167.43;;;13.10;99.90;;;;;;5143314;27;20042;-92
2022/11/02 03:44:39;;;;;;;1999.90;999.90;;;13.90;99.90;;;;;;5138623;27;20039;-87
2022/11/02 03:47:09;;;;;;;1533.25;547.35;;;14.90;99.90;;;;;;5155911;27;20042;-91
2022/11/02 03:49:38;;;;;;;1725.70;559.95;;;13.10;99.90;;;;;;5155531;27;20047;-87
2022/11/02 03:52:10;;;;;;;1999.90;790.95;;;13.10;99.90;;;;;;5155598;27;20125;-88
2022/11/02 03:54:56;;;;;;;1354.40;161.85;;;14.10;99.90;;;;;;5136962;27;20498;-89
2022/11/02 03:57:27;;;;;;;1283.95;132.10;;;13.40;99.90;;;;;;5154943;27;20047;-91
2022/11/02 04:00:04;;;;;;;1999.90;812.80;;;13.40;99.90;;;;;;5137703;27;20043;-87
2022/11/02 04:02:33;;;;;;;1923.00;772.78;;;13.50;99.90;;;;;;5154339;27;20108;-90
2022/11/02 04:04:58;;;;;;;1999.90;999.90;;;13.20;99.90;;;;;;5155131;27;20179;-84
2022/11/02 04:08:19;;;;;;;1858.97;102.45;;;13.40;99.90;;;;;;5154607;27;20122;-86
2022/11/02 04:10:15;;;;;;;1973.38;780.38;;;13.70;99.90;;;;;;5136474;27;20051;-87
2022/11/02 04:15:25;;;;;;;1254.95;74.55;;;13.50;99.90;;;;;;5154274;27;20089;-86
2022/11/02 04:20:35;;;;;;;1999.90;999.90;;;13.80;99.90;;;;;;5136057;27;20073;-86
2022/11/02 04:25:45;;;;;;;1527.43;523.00;;;13.50;99.90;;;;;;5155363;27;20049;-84
2022/11/02 04:28:10;;;;;;;1999.90;134.95;;;13.50;99.90;;;;;;5135972;27;20126;-83
2022/11/02 04:30:36;;;;;;;1931.50;766.25;;;13.90;99.90;;;;;;5154469;27;20085;-83
2022/11/02 04:35:46;;;;;;;1999.90;999.90;;;13.70;99.90;;;;;;5154005;27;20054;-83
2022/11/02 04:43:43;;;;;;;1999.90;999.90;;;13.70;99.90;;;;;;5154977;27;20149;-84
2022/11/02 04:46:08;;;;;;;1999.90;999.90;;;13.80;99.90;;;;;;5154169;27;20064;-85
2022/11/02 04:48:34;;;;;;;1946.75;385.02;;;14.00;99.90;;;;;;5135532;27;20125;-85
2022/11/02 04:51:00;;;;;;;1889.88;226.55;;;13.70;99.90;;;;;;5153658;27;20130;-86
2022/11/02 04:53:25;;;;;;;1970.55;785.35;;;14.30;99.90;;;;;;5136186;27;20149;-87
2022/11/02 04:55:51;;;;;;;1999.90;525.15;;;14.10;99.90;;;;;;5135433;27;20047;-88
2022/11/02 04:58:17;;;;;;;1977.97;135.27;;;13.40;99.90;;;;;;5153993;27;20082;-90
2022/11/02 05:00:43;;;;;;;1985.10;193.32;;;13.30;99.90;;;;;;5118614;27;20089;-91
2022/11/02 05:03:08;;;;;;;1823.30;170.75;;;13.40;99.90;;;;;;5135653;27;20051;-91
2022/11/02 05:05:34;;;;;;;1990.18;379.67;;;13.50;99.90;;;;;;5152124;27;20080;-87
2022/11/02 05:07:59;;;;;;;1999.90;295.88;;;14.50;99.90;;;;;;5135138;27;20564;-86
2022/11/02 05:10:25;;;;;;;1999.90;164.23;;;14.40;99.90;;;;;;5153878;27;20096;-88
2022/11/02 05:12:58;;;;;;;1999.90;294.45;;;14.50;99.90;;;;;;5136053;27;20462;-87
2022/11/02 05:15:24;;;;;;;1999.90;396.52;;;14.50;99.90;;;;;;5134623;27;20045;-87
2022/11/02 05:17:50;;;;;;;1999.90;249.70;;;13.50;99.90;;;;;;5153666;27;20046;-87
2022/11/02 05:20:16;;;;;;;1999.90;379.73;;;15.00;99.90;;;;;;5153608;27;20075;-85
2022/11/02 05:22:41;;;;;;;1999.90;400.02;;;13.50;99.90;;;;;;5153540;27;20259;-85
2022/11/02 05:25:11;;;;;;;1999.90;553.17;;;14.10;99.90;;;;;;5135698;27;20035;-85
2022/11/02 05:27:37;;;;;;;1999.90;298.75;;;14.20;99.90;;;;;;5134920;27;20077;-85
2022/11/02 05:30:04;;;;;;;1999.90;355.60;;;13.70;99.90;;;;;;5134627;27;20042;-83
2022/11/02 05:32:29;;;;;;;1999.90;331.25;;;14.50;99.90;;;;;;5153785;27;20126;-86
2022/11/02 05:34:55;;;;;;;1999.90;397.67;;;13.60;99.90;;;;;;5134840;27;20300;-85
2022/11/02 05:37:22;;;;;;;1999.90;457.45;;;14.70;99.90;;;;;;5135378;27;20482;-86
2022/11/02 05:39:47;;;;;;;1999.90;448.70;;;14.20;99.90;;;;;;5152636;27;20121;-85
2022/11/02 05:42:13;;;;;;;1999.90;268.33;;;14.00;99.90;;;;;;5135452;27;20180;-86
2022/11/02 05:44:39;;;;;;;1999.90;234.68;;;14.40;99.90;;;;;;5152821;27;20076;-89
2022/11/02 05:47:04;;;;;;;1999.90;797.35;;;13.70;99.90;;;;;;5118363;27;20046;-90
2022/11/02 05:49:30;;;;;;;1999.90;839.30;;;13.70;99.90;;;;;;5134755;27;20047;-86
2022/11/02 05:51:56;;;;;;;1999.90;790.97;;;13.80;99.90;;;;;;5153711;27;20053;-88
2022/11/02 05:54:22;;;;;;;1999.90;434.13;;;14.80;99.90;;;;;;5135058;27;20051;-84
2022/11/02 05:56:47;;;;;;;1999.90;151.48;;;14.20;99.90;;;;;;5134643;27;20047;-89
2022/11/02 05:59:13;;;;;;;1999.90;689.05;;;13.70;99.90;;;;;;5152057;27;20482;-86
2022/11/02 06:01:39;;;;;;;1881.15;580.60;;;14.00;99.90;;;;;;5135018;27;20493;-86
2022/11/02 06:04:05;;;;;;;1873.30;158.32;;;13.80;99.90;;;;;;5153546;27;20066;-87
2022/11/02 06:06:31;;;;;;;1486.68;318.35;;;14.30;99.90;;;;;;5153336;27;20078;-84
2022/11/02 06:08:56;;;;;;;1965.85;93.25;;;14.70;99.90;;;;;;5134395;27;20085;-86
2022/11/02 06:11:22;;;;;;;1931.18;134.52;;;14.70;99.90;;;;;;5118385;27;20046;-87
2022/11/02 06:13:49;;;;;;;1999.90;367.90;;;14.70;99.90;;;;;;5135167;27;20078;-87
2022/11/02 06:16:16;;;;;;;1999.90;603.75;;;14.30;99.90;;;;;;5153493;27;20050;-85
2022/11/02 06:18:42;;;;;;;1999.90;999.90;;;13.80;99.90;;;;;;5117272;27;20395;-85
2022/11/02 06:21:08;;;;;;;1999.90;999.90;;;14.50;99.90;;;;;;5153829;27;20125;-88
2022/11/02 06:23:35;;;;;;;1999.90;347.42;;;14.00;99.90;;;;;;5153191;27;20501;-88
2022/11/02 06:26:01;;;;;;;1994.28;813.78;;;14.70;99.90;;;;;;5153098;27;20486;-86
2022/11/02 06:28:28;;;;;;;1992.55;171.77;;;14.40;99.90;;;;;;5152911;27;20046;-82
2022/11/02 06:30:54;;;;;;;1849.27;72.63;;;14.70;99.90;;;;;;5153150;27;20036;-87
2022/11/02 06:33:21;;;;;;;1999.90;209.38;;;14.30;99.90;;;;;;5135331;27;20070;-87
2022/11/02 06:35:48;;;;;;;1931.93;771.50;;;14.90;99.90;;;;;;5134304;27;20496;-87
2022/11/02 06:38:15;;;;;;;1999.90;529.50;;;14.00;99.90;;;;;;5152735;27;20133;-82
2022/11/02 06:40:41;;;;;;;1999.90;999.90;;;14.00;99.90;;;;;;5154306;27;20061;-87
2022/11/02 06:43:11;;;;;;;1999.90;572.78;;;14.10;99.90;;;;;;5157619;27;20046;-87
2022/11/02 06:45:36;;;;;;;1275.55;74.22;;;15.00;99.90;;;;;;5139638;27;20050;-86
2022/11/02 06:48:02;;;;;;;1999.90;999.90;;;14.00;99.90;;;;;;5157318;27;20405;-86
2022/11/02 06:50:28;;;;;;;1999.90;237.80;;;15.10;99.90;;;;;;5121239;27;20374;-86
2022/11/02 06:52:54;;;;;;;1690.95;535.67;;;15.00;99.90;;;;;;5157112;27;20498;-86
2022/11/02 06:55:19;;;;;;;1999.90;781.25;;;14.20;99.90;;;;;;5155911;27;20050;-85
2022/11/02 06:57:45;;;;;;;1999.90;378.85;;;14.10;99.90;;;;;;5120946;27;20122;-84
2022/11/02 07:00:16;;;;;;;1999.90;802.60;;;16.40;99.90;;;;;;5156906;27;20509;-83
2022/11/02 07:02:42;;;;;;;1999.90;999.90;;;14.30;99.90;;;;;;5155344;27;20049;-84
2022/11/02 07:05:08;;;;;;;1999.90;999.90;;;14.80;99.90;;;;;;5156450;27;20112;-86
2022/11/02 07:07:33;;;;;;;1999.90;774.22;;;15.10;99.90;;;;;;5138220;27;20046;-85
2022/11/02 07:09:59;;;;;;;1527.00;519.58;;;14.70;99.90;;;;;;5121177;27;20051;-85
2022/11/02 07:12:25;;;;;;;1999.90;999.90;;;14.50;99.90;;;;;;5155694;27;20135;-84
2022/11/02 07:14:50;;;;;;;1999.90;999.90;;;15.10;99.90;;;;;;5138029;27;20122;-84
2022/11/02 07:17:16;;;;;;;1999.90;555.42;;;15.40;99.90;;;;;;5155756;27;20066;-82
2022/11/02 07:19:42;;;;;;;1999.90;807.40;;;14.30;99.90;;;;;;5156076;27;20527;-83
2022/11/02 07:22:07;;;;;;;1999.90;574.15;;;14.40;99.90;;;;;;5156002;27;20062;-83
2022/11/02 07:24:33;;;;;;;1953.65;791.20;;;14.60;99.90;;;;;;5154885;27;20043;-83
2022/11/02 07:26:59;;;;;;;1895.10;766.78;;;14.60;99.90;;;;;;5137429;27;20049;-82
2022/11/02 07:29:24;;;;;;;1811.10;772.50;;;15.60;99.90;;;;;;5156680;27;20138;-80
2022/11/02 07:31:50;;;;;;;1780.63;768.85;;;15.00;99.90;;;;;;5155807;27;20046;-81
2022/11/02 07:34:16;;;;;;;1999.90;999.90;;;14.30;99.90;;;;;;5155339;27;20047;-81
2022/11/02 07:36:41;;;;;;;1999.90;999.90;;;14.40;99.90;;;;;;5136698;27;20038;-81
2022/11/02 07:39:07;;;;;;;1999.90;999.90;;;14.40;99.90;;;;;;5155767;27;20042;-80
2022/11/02 07:41:34;;;;;;;1810.72;763.00;;;15.40;99.90;;;;;;5137379;27;20471;-80
2022/11/02 07:44:00;;;;;;;1999.90;999.90;;;14.40;99.90;;;;;;5155978;27;20050;-81
2022/11/02 07:46:26;;;;;;;1999.90;999.90;;;14.30;99.90;;;;;;5137722;27;20539;-81
2022/11/02 07:48:51;;;;;;;1999.90;999.90;;;14.60;99.90;;;;;;5155606;27;20100;-81
2022/11/02 07:51:17;;;;;;;1999.90;999.90;;;15.40;99.90;;;;;;5136380;27;20039;-81
2022/11/02 07:53:43;;;;;;;1999.90;999.90;;;14.60;99.90;;;;;;5136808;27;20054;-81
2022/11/02 07:56:09;;;;;;;1999.90;999.90;;;15.40;99.90;;;;;;5137329;27;20034;-81
2022/11/02 07:58:35;;;;;;;1999.90;999.90;;;15.60;99.90;;;;;;5156053;27;20043;-80
2022/11/02 08:01:01;;;;;;;1999.90;999.90;;;14.90;99.90;;;;;;5154963;27;20130;-81
2022/11/02 08:03:28;;;;;;;1999.90;999.90;;;15.50;99.90;;;;;;5137904;27;20387;-80
2022/11/02 08:05:54;;;;;;;1999.90;587.97;;;14.80;99.90;;;;;;5155213;27;20043;-81
2022/11/02 08:08:24;;;;;;;1999.90;999.90;;;14.90;99.90;;;;;;5136991;27;20043;-80
2022/11/02 08:10:51;;;;;;;1999.90;999.90;;;15.30;99.90;;;;;;5136895;27;20054;-81
2022/11/02 08:13:22;;;;;;;1999.90;999.90;;;15.70;99.90;;;;;;5155584;27;20486;-80
2022/11/02 08:15:52;;;;;;;1999.90;999.90;;;16.00;99.90;;;;;;5136242;27;20035;-80
2022/11/02 08:18:23;;;;;;;1999.90;999.90;;;15.80;99.90;;;;;;5136980;27;20055;-79
2022/11/02 08:20:50;;;;;;;1999.90;999.90;;;15.70;99.90;;;;;;5119077;27;20475;-80
2022/11/02 08:23:17;;;;;;;1999.90;999.90;;;15.80;99.90;;;;;;5137176;27;20070;-79
2022/11/02 08:25:44;;;;;;;1999.90;999.90;;;15.30;99.90;;;;;;5154844;27;20108;-80
2022/11/02 08:28:22;;;;;;;1999.90;999.90;;;15.90;99.90;;;;;;5155235;27;20574;-80
2022/11/02 08:30:48;;;;;;;1999.90;999.90;;;15.90;99.90;;;;;;5136429;27;20307;-79
2022/11/02 08:33:15;;;;;;;1999.90;999.90;;;15.20;99.90;;;;;;5154976;27;20479;-79
2022/11/02 08:35:42;;;;;;;1999.90;999.90;;;15.20;99.90;;;;;;5135721;27;20042;-82
2022/11/02 08:38:10;;;;;;;1765.15;757.90;;;15.60;99.90;;;;;;5155149;27;20050;-81
2022/11/02 08:40:40;;;;;;;1745.63;311.52;;;15.10;99.90;;;;;;5154915;27;20039;-80
2022/11/02 08:43:10;;;;;;;1999.90;999.90;;;14.80;99.90;;;;;;5154478;27;20087;-82
2022/11/02 08:45:38;;;;;;;1999.90;999.90;;;15.30;99.90;;;;;;5154903;27;20063;-81
2022/11/02 08:48:04;;;;;;;1999.90;999.90;;;15.20;99.90;;;;;;5136162;27;20383;-81
2022/11/02 08:50:30;;;;;;;1999.90;999.90;;;15.20;99.90;;;;;;5118735;27;20046;-80
2022/11/02 08:52:56;;;;;;;1999.90;999.90;;;14.90;99.90;;;;;;5118894;27;20042;-81
2022/11/02 08:55:22;;;;;;;1999.90;999.90;;;15.30;99.90;;;;;;5136199;27;20043;-80
2022/11/02 08:57:56;;;;;;;1999.90;999.90;;;15.30;99.90;;;;;;5119050;27;20086;-80
2022/11/02 09:00:24;;;;;;;1504.00;525.85;;;15.40;99.90;;;;;;5153931;27;20042;-81
2022/11/02 09:03:07;;;;;;;1999.90;999.90;;;15.50;99.90;;;;;;5135273;27;20402;-81
2022/11/02 09:05:42;;;;;;;1999.90;999.90;;;15.40;99.90;;;;;;5154527;27;20046;-81
2022/11/02 09:08:18;;;;;;;1999.90;999.90;;;15.40;99.90;;;;;;5136244;27;20047;-82
2022/11/02 09:10:48;;;;;;;1999.90;999.90;;;15.30;99.90;;;;;;5135745;27;20403;-81
2022/11/02 09:13:15;;;;;;;1999.90;999.90;;;15.10;99.90;;;;;;5154336;27;20043;-84
2022/11/02 09:15:40;;;;;;;1713.60;230.05;;;15.30;99.90;;;;;;5118615;27;20058;-81
2022/11/02 09:18:07;;;;;;;1999.90;999.90;;;15.30;99.90;;;;;;5115097;27;20058;-83
2022/11/02 09:20:33;;;;;;;1999.90;999.90;;;15.10;99.90;;;;;;5133156;27;20460;-83
2022/11/02 09:22:59;;;;;;;1996.82;768.05;;;15.20;99.90;;;;;;5132072;27;20082;-82
2022/11/02 09:25:25;;;;;;;1999.90;999.90;;;15.30;19.10;;;;;;5133682;27;20086;-84
2022/11/02 09:27:55;;;;;;;1999.90;999.90;;;15.30;99.90;;;;;;5133267;27;20134;-83
2022/11/02 09:30:22;;;;;;;1999.90;999.90;;;15.50;99.90;;;;;;5132538;27;20459;-84
2022/11/02 09:33:06;;;;;;;1999.90;999.90;;;15.50;99.90;;;;;;5133463;27;20125;-84
2022/11/02 09:35:34;;;;;;;1999.90;999.90;;;15.60;58.50;;;;;;5131673;27;20039;-85
2022/11/02 09:38:00;;;;;;;1999.90;999.90;;;15.70;99.90;;;;;;5133010;27;20043;-87
2022/11/02 09:40:29;;;;;;;1999.90;999.90;;;15.80;1.00;;;;;;5133513;27;20398;-88
2022/11/02 09:43:07;;;;;;;1999.90;999.90;;;15.80;99.90;;;;;;5133411;27;20485;-85
2022/11/02 09:45:37;;;;;;;1999.90;999.90;;;15.80;99.90;;;;;;5115110;27;20409;-88
2022/11/02 09:48:19;;;;;;;1999.90;999.90;;;15.90;99.90;;;;;;5132259;27;20035;-88
2022/11/02 09:50:54;;;;;;;1999.90;999.90;;;15.90;99.90;;;;;;5131737;28;20051;-86
2022/11/02 09:53:32;;;;;;;1999.90;999.90;;;16.00;99.90;;;;;;5132855;27;20487;-84
2022/11/02 09:56:01;;;;;;;1999.90;999.90;;;16.10;1.00;;;;;;5132682;27;20108;-85
2022/11/02 09:58:37;;;;;;;1999.90;999.90;;;16.10;77.50;;;;;;5133724;27;20057;-82
2022/11/02 10:01:18;;;;;;;1999.90;999.90;;;16.20;99.90;;;;;;5132826;27;20050;-83
2022/11/02 10:04:14;;;;;;;1999.90;999.90;;;16.20;99.90;;;;;;5131875;28;20044;-84
2022/11/02 10:06:49;;;;;;;1999.90;999.90;;;16.40;99.90;;;;;;5131331;28;20191;-85
2022/11/02 10:09:43;;;;;;;1999.90;999.90;;;16.60;99.90;;;;;;5133408;27;20046;-86
2022/11/02 10:12:15;;;;;;;1999.90;999.90;;;16.80;1.00;;;;;;5124894;28;20055;-87
2022/11/02 10:14:58;;;;;;;1999.90;999.90;;;16.80;99.90;;;;;;5131966;27;20046;-88
2022/11/02 10:17:28;;;;;;;1999.90;999.90;;;16.80;99.90;;;;;;5135817;27;20092;-86
2022/11/02 10:19:56;;;;;;;1999.90;999.90;;;16.70;99.90;;;;;;5136753;27;20051;-87
2022/11/02 10:22:30;;;;;;;1999.90;999.90;;;16.50;99.90;;;;;;5137184;27;20087;-85
2022/11/02 10:24:57;;;;;;;1999.90;999.90;;;16.40;99.90;;;;;;5136166;27;20066;-83
2022/11/02 10:27:26;;;;;;;1999.90;999.90;;;16.20;99.90;;;;;;5136888;27;20050;-83
2022/11/02 10:30:06;;;;;;;1999.90;999.90;;;16.20;99.90;;;;;;5135161;27;20100;-81
2022/11/02 10:32:33;;;;;;;1999.90;999.90;;;16.30;99.90;;;;;;5135906;27;20043;-85
2022/11/02 10:35:02;;;;;;;1999.90;999.90;;;16.40;99.90;;;;;;5134589;27;20548;-85
2022/11/02 10:37:53;;;;;;;1999.90;999.90;;;16.40;99.90;;;;;;5135944;27;20491;-83
2022/11/02 10:40:55;;;;;;;1999.90;999.90;;;16.50;99.90;;;;;;5136976;27;20065;-82
2022/11/02 10:43:32;;;;;;;1999.90;999.90;;;16.50;99.90;;;;;;5136837;27;20546;-81
2022/11/02 10:46:38;;;;;;;1999.90;999.90;;;16.60;88.50;;;;;;5134967;27;20069;-84
2022/11/02 10:49:30;;;;;;;1999.90;999.90;;;16.60;72.50;;;;;;5112445;27;20441;-83
2022/11/02 10:51:56;;;;;;;1999.90;999.90;;;16.60;1.00;;;;;;5117727;27;20082;-86
2022/11/02 10:54:21;;;;;;;1999.90;999.90;;;16.60;40.00;;;;;;5136429;27;20491;-80
2022/11/02 10:56:49;;;;;;;1999.90;999.90;;;16.60;1.00;;;;;;5135292;27;20088;-84
2022/11/02 10:59:17;;;;;;;1999.90;999.90;;;16.60;1.00;;;;;;5136181;27;20494;-83
2022/11/02 11:02:05;;;;;;;1999.90;999.90;;;16.70;1.00;;;;;;5136092;27;20089;-82
2022/11/02 11:04:33;;;;;;;1999.90;999.90;;;16.70;1.00;;;;;;5135002;27;20080;-84
2022/11/02 11:07:05;;;;;;;1999.90;999.90;;;16.60;1.00;;;;;;5136078;27;20092;-86
2022/11/02 11:09:53;;;;;;;1999.90;999.90;;;16.70;1.00;;;;;;5134834;27;20087;-83
2022/11/02 11:12:21;;;;;;;1999.90;999.90;;;16.80;1.00;;;;;;5135174;27;20089;-83
2022/11/02 11:14:56;;;;;;;1999.90;999.90;;;16.90;1.00;;;;;;5134930;27;20122;-82
2022/11/02 11:17:33;;;;;;;1999.90;999.90;;;17.00;99.90;;;;;;5148029;27;20130;-81
2022/11/02 11:19:59;;;;;;;1999.90;999.90;;;16.80;1.00;;;;;;5137676;27;20073;-81
2022/11/02 11:22:29;;;;;;;1999.90;999.90;;;16.60;99.90;;;;;;5104501;27;20042;-82
2022/11/02 11:25:12;;;;;;;1999.90;999.90;;;16.50;1.00;;;;;;5138165;27;20090;-81
2022/11/02 11:27:46;;;;;;;1999.90;999.90;;;16.40;1.00;;;;;;5155008;27;20564;-82
2022/11/02 11:30:28;;;;;;;1999.90;999.90;;;16.40;1.00;;;;;;5156271;27;20121;-81
2022/11/02 11:32:56;;;;;;;1999.90;999.90;;;16.30;1.00;;;;;;5137888;27;20054;-81
2022/11/02 11:35:23;;;;;;;1999.90;999.90;;;16.30;99.90;;;;;;5136972;27;20035;-80
2022/11/02 11:37:54;;;;;;;1999.90;999.90;;;16.30;1.00;;;;;;5137815;27;20043;-79
2022/11/02 11:40:21;;;;;;;1999.90;999.90;;;17.20;99.90;;;;;;5156304;27;20054;-81
2022/11/02 11:42:53;;;;;;;1999.90;999.90;;;16.30;1.00;;;;;;5155627;27;20111;-81
2022/11/02 11:45:28;;;;;;;1999.90;999.90;;;16.30;1.00;;;;;;5155583;27;20129;-80
2022/11/02 11:48:15;;;;;;;1999.90;999.90;;;16.30;99.90;;;;;;5137464;27;20050;-80
2022/11/02 11:50:46;;;;;;;1999.90;999.90;;;16.40;99.90;;;;;;5140850;27;20078;-79
2022/11/02 11:53:12;;;;;;;1999.90;999.90;;;16.40;99.90;;;;;;5137935;27;20082;-80
2022/11/02 11:55:47;;;;;;;1999.90;999.90;;;16.40;99.90;;;;;;5137883;27;20074;-81
2022/11/02 11:58:20;;;;;;;1999.90;999.90;;;16.50;99.90;;;;;;5155890;27;20386;-79
2022/11/02 12:01:03;;;;;;;1999.90;999.90;;;16.50;99.90;;;;;;5120749;27;20503;-80
2022/11/02 12:03:30;;;;;;;1999.90;999.90;;;16.60;99.90;;;;;;5138032;27;20398;-81
2022/11/02 12:05:59;;;;;;;1999.90;999.90;;;16.50;99.90;;;;;;5155824;27;20117;-87
2022/11/02 12:08:49;;;;;;;1999.90;999.90;;;16.40;99.90;;;;;;5137373;27;20405;-79
2022/11/02 12:11:34;;;;;;;1999.90;999.90;;;16.30;99.90;;;;;;5155621;27;20429;-81
2022/11/02 12:14:22;;;;;;;1999.90;999.90;;;16.20;99.90;;;;;;5137347;27;20047;-80
2022/11/02 12:17:24;;;;;;;1999.90;999.90;;;16.20;99.90;;;;;;5155629;27;20596;-79
2022/11/02 12:20:17;;;;;;;1999.90;999.90;;;16.20;99.90;;;;;;5119617;27;20055;-79
2022/11/02 12:22:54;;;;;;;1999.90;999.90;;;16.20;99.90;;;;;;5154453;27;20483;-80
2022/11/02 12:25:33;;;;;;;1999.90;999.90;;;16.10;99.90;;;;;;5154995;27;20497;-79
2022/11/02 12:28:18;;;;;;;1999.90;999.90;;;16.00;99.90;;;;;;5136739;27;20129;-80
2022/11/02 12:31:01;;;;;;;1999.90;999.90;;;15.90;99.90;;;;;;5154630;27;20554;-81
2022/11/02 12:33:51;;;;;;;1999.90;999.90;;;15.80;99.90;;;;;;5137099;27;20050;-80
2022/11/02 12:36:44;;;;;;;1999.90;999.90;;;15.80;99.90;;;;;;5154498;27;20047;-81